Time;durP1;ratioP1;P1;durP2;ratioP2;P2;SDS_P1;SDS_P2;PMS_P1;PMS_P2;Temp;Humidity;BMP_temperature;BMP_pressure;BME280_temperature;BME280_humidity;BME280_pressure;Samples;Min_cycle;Max_cycle;Signal;HPM_P1;HPM_P2
2021/06/01 00:00:36;;;;;;;7.32;4.80;;;;;;;9.06;69.16;99956.41;4849420;29;20053;-78
2021/06/01 00:03:02;;;;;;;6.78;3.95;;;;;;;9.05;68.88;99954.69;4820786;29;20106;-78
2021/06/01 00:05:27;;;;;;;9.32;4.15;;;;;;;9.05;68.85;99961.94;4829362;29;20053;-80
2021/06/01 00:07:53;;;;;;;7.47;4.35;;;;;;;9.03;69.10;99951.28;4832773;29;20549;-79
2021/06/01 00:10:19;;;;;;;6.47;4.25;;;;;;;9.09;68.42;99961.53;4837717;29;20080;-79
2021/06/01 00:12:45;;;;;;;9.13;4.78;;;;;;;9.08;68.27;99958.97;4846539;29;20049;-79
2021/06/01 00:15:11;;;;;;;9.35;4.25;;;;;;;9.03;68.69;99953.13;4843592;29;20058;-76
2021/06/01 00:17:38;;;;;;;8.57;4.30;;;;;;;9.07;68.53;99955.44;4839735;29;20122;-78
2021/06/01 00:20:06;;;;;;;12.00;4.85;;;;;;;9.09;68.30;99963.38;4843582;29;20041;-79
2021/06/01 00:22:32;;;;;;;18.88;4.70;;;;;;;9.09;68.82;99963.38;4850634;29;20110;-78
2021/06/01 00:24:58;;;;;;;12.20;4.75;;;;;;;9.08;68.83;99962.53;4854349;29;20045;-79
2021/06/01 00:27:24;;;;;;;11.23;5.00;;;;;;;9.07;69.54;99966.22;4839710;29;20053;-77
2021/06/01 00:29:50;;;;;;;6.57;4.70;;;;;;;9.06;69.43;99966.34;4846275;29;20041;-78
2021/06/01 00:32:16;;;;;;;8.23;4.50;;;;;;;9.00;69.95;99959.66;4837945;29;20503;-79
2021/06/01 00:34:42;;;;;;;6.63;4.88;;;;;;;9.01;69.60;99965.91;4848130;29;20070;-77
2021/06/01 00:37:08;;;;;;;11.15;4.50;;;;;;;8.99;69.34;99951.69;4852759;29;20061;-77
2021/06/01 00:39:34;;;;;;;13.52;5.20;;;;;;;9.03;69.30;99963.91;4850758;29;20415;-78
2021/06/01 00:41:59;;;;;;;8.45;4.57;;;;;;;9.04;69.39;99960.25;4838925;29;20064;-78
2021/06/01 00:44:25;;;;;;;6.68;4.55;;;;;;;8.99;68.94;99962.47;4842473;29;20046;-79
2021/06/01 00:46:51;;;;;;;7.68;4.88;;;;;;;8.98;69.63;99960.75;4852445;29;20053;-78
2021/06/01 00:49:17;;;;;;;8.75;4.60;;;;;;;8.96;70.34;99968.13;4829778;29;20045;-78
2021/06/01 00:51:46;;;;;;;8.18;4.40;;;;;;;8.94;70.25;99970.97;4842867;29;20443;-77
2021/06/01 00:54:12;;;;;;;8.35;4.97;;;;;;;8.99;70.13;99973.25;4845869;29;20038;-79
2021/06/01 00:56:38;;;;;;;11.07;5.10;;;;;;;9.01;70.48;99965.91;4819958;29;20081;-78
2021/06/01 00:59:03;;;;;;;8.75;5.43;;;;;;;8.96;70.14;99970.81;4834726;29;20069;-80
2021/06/01 01:01:30;;;;;;;10.88;5.85;;;;;;;8.99;70.21;99970.56;4847520;29;20069;-80
2021/06/01 01:03:56;;;;;;;9.55;5.90;;;;;;;8.98;70.15;99971.53;4818152;29;20094;-79
2021/06/01 01:06:40;;;;;;;7.80;5.45;;;;;;;8.93;70.49;99970.09;4853435;29;20049;-77
2021/06/01 01:09:12;;;;;;;10.38;5.10;;;;;;;8.91;71.03;99969.38;4840052;29;20125;-79
2021/06/01 01:11:52;;;;;;;5.97;5.00;;;;;;;8.90;71.13;99964.97;4840016;29;20054;-78
2021/06/01 01:14:28;;;;;;;11.85;5.03;;;;;;;8.86;71.74;99965.38;4834594;29;20048;-78
2021/06/01 01:16:59;;;;;;;8.05;5.28;;;;;;;8.87;71.51;99965.22;4843298;29;20054;-78
2021/06/01 01:19:54;;;;;;;15.50;5.25;;;;;;;8.86;71.91;99968.94;4849965;29;20034;-77
2021/06/01 01:22:20;;;;;;;9.57;4.63;;;;;;;8.82;72.24;99967.50;4832903;29;20393;-78
2021/06/01 01:25:04;;;;;;;8.50;4.88;;;;;;;8.84;71.93;99972.72;4855433;29;20048;-79
2021/06/01 01:27:49;;;;;;;7.80;5.00;;;;;;;8.83;71.90;99963.78;4847809;29;20081;-76
2021/06/01 01:30:16;;;;;;;8.60;5.65;;;;;;;8.82;72.11;99975.56;4834378;29;20132;-78
2021/06/01 01:32:48;;;;;;;9.88;5.00;;;;;;;8.80;72.78;99966.75;4850770;29;20049;-76
2021/06/01 01:35:15;;;;;;;8.88;5.00;;;;;;;8.83;72.77;99985.38;4832451;29;20500;-78
2021/06/01 01:37:42;;;;;;;8.88;5.00;;;;;;;8.81;72.73;99976.56;4820778;29;20069;-79
2021/06/01 01:40:08;;;;;;;9.63;5.30;;;;;;;8.82;73.18;99978.28;4838049;29;20132;-78
2021/06/01 01:42:44;;;;;;;8.65;4.88;;;;;;;8.80;73.07;99980.22;4847866;29;20064;-79
2021/06/01 01:45:20;;;;;;;9.45;5.20;;;;;;;8.78;73.88;99987.63;4821503;29;20042;-80
2021/06/01 01:50:20;;;;;;;9.77;4.65;;;;;;;8.84;73.82;99986.22;4856187;29;20034;-80
2021/06/01 01:52:47;;;;;;;9.23;4.80;;;;;;;8.79;73.38;99978.53;4852385;29;20037;-78
2021/06/01 01:55:15;;;;;;;8.30;5.50;;;;;;;8.83;73.56;99979.97;4824259;29;20187;-79
2021/06/01 01:57:46;;;;;;;8.38;5.43;;;;;;;8.87;73.27;99986.81;4848306;29;20090;-81
2021/06/01 02:00:15;;;;;;;8.85;5.65;;;;;;;8.87;73.03;99980.56;4848170;29;20046;-80
2021/06/01 02:02:41;;;;;;;9.95;5.50;;;;;;;8.94;72.25;99981.75;4854601;29;20053;-79
2021/06/01 02:05:09;;;;;;;8.85;5.13;;;;;;;8.98;72.16;99990.44;4856250;29;20056;-82
2021/06/01 02:07:35;;;;;;;10.73;5.75;;;;;;;8.97;70.42;99986.03;4852115;29;20042;-79
2021/06/01 02:10:06;;;;;;;15.48;5.75;;;;;;;9.04;69.99;99987.22;4858312;29;20121;-78
2021/06/01 02:12:32;;;;;;;9.85;5.35;;;;;;;9.01;68.21;99992.84;4839689;29;20053;-79
2021/06/01 02:14:58;;;;;;;7.78;5.25;;;;;;;8.98;68.10;99987.72;4853880;29;20060;-78
2021/06/01 02:17:24;;;;;;;7.30;4.90;;;;;;;9.01;67.06;99987.47;4852044;29;20045;-79
2021/06/01 02:19:50;;;;;;;8.18;5.35;;;;;;;9.09;67.05;99993.03;4849156;29;20098;-77
2021/06/01 02:22:23;;;;;;;7.70;5.13;;;;;;;9.15;66.62;99995.22;4856523;29;20053;-78
2021/06/01 02:25:13;;;;;;;9.35;4.95;;;;;;;9.22;65.20;99991.00;4842190;29;20103;-76
2021/06/01 02:27:47;;;;;;;7.40;6.22;;;;;;;9.24;64.86;99993.53;4827430;29;20238;-78
2021/06/01 02:30:15;;;;;;;10.95;5.60;;;;;;;9.30;64.91;99991.16;4852030;29;20054;-78
2021/06/01 02:32:50;;;;;;;8.00;5.03;;;;;;;9.35;65.40;100002.41;4853637;29;20049;-77
2021/06/01 02:35:26;;;;;;;11.10;6.07;;;;;;;9.42;63.51;100002.72;4840145;29;20042;-78
2021/06/01 02:37:52;;;;;;;10.68;5.45;;;;;;;9.52;64.40;100002.78;4840639;29;20033;-80
2021/06/01 02:40:22;;;;;;;8.45;5.72;;;;;;;9.49;63.61;100013.84;4843682;29;20098;-78
2021/06/01 02:42:48;;;;;;;10.65;6.10;;;;;;;9.48;63.58;100002.19;4832941;29;20099;-77
2021/06/01 02:45:17;;;;;;;10.35;5.97;;;;;;;9.55;63.74;100007.91;4835409;29;20118;-78
2021/06/01 02:47:45;;;;;;;7.78;5.72;;;;;;;9.58;63.86;100002.22;4853819;29;20048;-79
2021/06/01 02:50:13;;;;;;;8.43;5.95;;;;;;;9.59;63.94;100009.34;4855343;29;20044;-80
2021/06/01 02:52:40;;;;;;;10.65;6.00;;;;;;;9.63;63.52;100000.81;4839800;29;20050;-80
2021/06/01 02:55:07;;;;;;;9.90;5.68;;;;;;;9.73;63.90;100005.41;4842325;29;20061;-80
2021/06/01 02:57:34;;;;;;;16.55;6.75;;;;;;;9.78;63.30;99995.03;4870708;29;20097;-79
2021/06/01 03:00:00;;;;;;;8.27;6.13;;;;;;;9.94;62.54;100002.59;4848886;29;20049;-78
2021/06/01 03:02:31;;;;;;;7.85;5.50;;;;;;;10.17;62.18;100005.94;4796333;29;20050;-79
2021/06/01 03:04:57;;;;;;;7.70;5.55;;;;;;;10.17;61.55;100009.50;4841638;29;20041;-77
2021/06/01 03:07:23;;;;;;;9.85;5.10;;;;;;;10.26;61.87;100008.69;4849330;29;20037;-79
2021/06/01 03:09:49;;;;;;;9.98;5.78;;;;;;;10.31;61.15;99994.72;4851120;29;20124;-79
2021/06/01 03:12:38;;;;;;;9.93;6.07;;;;;;;10.32;61.88;100005.41;4851130;29;20572;-79
2021/06/01 03:15:05;;;;;;;8.40;4.75;;;;;;;10.32;61.02;100000.00;4850344;29;20042;-79
2021/06/01 03:17:31;;;;;;;9.38;5.47;;;;;;;10.46;60.36;100006.84;4833827;29;20042;-79
2021/06/01 03:19:57;;;;;;;8.50;5.03;;;;;;;10.78;60.47;100008.41;4852349;29;20046;-80
2021/06/01 03:22:23;;;;;;;5.30;4.47;;;;;;;11.08;58.98;100007.38;4843124;29;20069;-78
2021/06/01 03:24:48;;;;;;;7.95;5.25;;;;;;;11.34;58.41;100011.16;4832771;29;20564;-78
2021/06/01 03:27:14;;;;;;;7.97;5.20;;;;;;;11.59;57.41;100014.19;4833779;29;20365;-78
2021/06/01 03:29:40;;;;;;;8.13;4.90;;;;;;;11.63;56.98;100002.06;4848127;29;20052;-79
2021/06/01 03:32:07;;;;;;;8.77;4.85;;;;;;;11.73;57.18;100010.97;4846819;29;20049;-81
2021/06/01 03:34:33;;;;;;;12.48;5.25;;;;;;;11.76;56.61;100007.13;4847340;29;20049;-79
2021/06/01 03:36:59;;;;;;;6.93;5.22;;;;;;;11.78;56.66;100014.09;4852148;29;20049;-81
2021/06/01 03:39:27;;;;;;;9.32;4.90;;;;;;;11.74;56.45;100012.69;4836051;29;20538;-79
2021/06/01 03:41:53;;;;;;;11.68;5.38;;;;;;;11.66;56.41;100017.97;4841730;29;20064;-79
2021/06/01 03:44:19;;;;;;;9.35;5.82;;;;;;;11.72;55.40;100014.69;4839222;29;20053;-79
2021/06/01 03:46:45;;;;;;;9.18;5.43;;;;;;;11.71;54.06;100018.41;4847875;29;20137;-79
2021/06/01 03:49:10;;;;;;;10.00;6.00;;;;;;;11.75;55.05;100025.22;4844721;29;20482;-77
2021/06/01 03:51:36;;;;;;;14.30;5.45;;;;;;;11.76;54.84;100026.06;4830367;29;20042;-80
2021/06/01 03:54:03;;;;;;;8.07;5.57;;;;;;;11.85;53.97;100030.66;4851816;29;20081;-78
2021/06/01 03:56:29;;;;;;;8.55;5.25;;;;;;;11.97;53.66;100025.88;4840109;29;20037;-77
2021/06/01 03:58:55;;;;;;;8.57;6.07;;;;;;;11.84;53.52;100023.50;4837053;29;20560;-79
2021/06/01 04:01:21;;;;;;;5.95;4.28;;;;;;;11.74;52.81;100028.94;4838299;29;20052;-79
2021/06/01 04:03:47;;;;;;;6.38;4.05;;;;;;;11.80;52.06;100024.78;4843315;29;20588;-79
2021/06/01 04:06:13;;;;;;;5.63;3.95;;;;;;;11.91;52.30;100040.84;4844610;29;20208;-79
2021/06/01 04:08:40;;;;;;;7.10;4.00;;;;;;;11.96;51.81;100038.56;4849110;29;20129;-78
2021/06/01 04:11:06;;;;;;;10.75;3.90;;;;;;;12.08;51.26;100041.91;4835914;29;20060;-79
2021/06/01 04:13:32;;;;;;;8.77;3.85;;;;;;;12.34;50.19;100035.78;4830240;29;20048;-82
2021/06/01 04:15:58;;;;;;;4.20;3.47;;;;;;;12.42;49.80;100044.84;4820182;29;20148;-83
2021/06/01 04:18:24;;;;;;;5.45;3.25;;;;;;;12.48;49.70;100043.38;4829497;29;20073;-78
2021/06/01 04:20:50;;;;;;;5.70;3.20;;;;;;;12.51;49.48;100045.78;4844381;29;20148;-80
2021/06/01 04:23:16;;;;;;;4.70;2.75;;;;;;;12.55;50.01;100047.19;4846217;29;20045;-82
2021/06/01 04:25:43;;;;;;;7.45;3.30;;;;;;;12.46;50.41;100040.81;4845967;29;20105;-80
2021/06/01 04:28:09;;;;;;;7.65;3.35;;;;;;;12.81;49.72;100038.28;4849270;29;20164;-78
2021/06/01 04:30:35;;;;;;;3.40;2.80;;;;;;;12.89;48.06;100036.47;4843142;29;20069;-81
2021/06/01 04:33:01;;;;;;;8.73;3.33;;;;;;;13.00;48.59;100038.09;4833360;29;20531;-79
2021/06/01 04:35:27;;;;;;;6.10;3.40;;;;;;;13.30;47.87;100041.38;4843782;29;20113;-79
2021/06/01 04:38:10;;;;;;;4.85;2.95;;;;;;;13.17;48.35;100034.50;4855699;29;20053;-78
2021/06/01 04:40:39;;;;;;;9.20;2.70;;;;;;;13.37;48.01;100034.31;4840194;29;20490;-78
2021/06/01 04:43:05;;;;;;;3.90;2.53;;;;;;;13.75;46.50;100044.72;4844776;29;20049;-81
2021/06/01 04:45:33;;;;;;;3.85;2.53;;;;;;;13.95;46.47;100041.75;4853961;29;20056;-82
2021/06/01 04:47:59;;;;;;;4.43;2.42;;;;;;;13.96;45.77;100035.28;4851155;29;20096;-79
2021/06/01 04:50:28;;;;;;;3.10;2.80;;;;;;;14.39;45.80;100038.84;4851308;29;20084;-81
2021/06/01 04:52:55;;;;;;;5.82;2.65;;;;;;;14.77;44.41;100039.25;4838450;29;20125;-80
2021/06/01 04:55:21;;;;;;;9.90;2.45;;;;;;;14.73;45.02;100037.91;4841197;29;20500;-81
2021/06/01 04:57:47;;;;;;;10.70;3.15;;;;;;;14.76;44.58;100038.41;4839811;29;20095;-82
2021/06/01 05:00:14;;;;;;;4.28;2.25;;;;;;;14.80;45.48;100044.38;4853539;29;20445;-80
2021/06/01 05:02:40;;;;;;;5.63;2.60;;;;;;;14.86;44.13;100043.72;4832412;29;20050;-81
2021/06/01 05:05:06;;;;;;;5.15;2.30;;;;;;;14.87;44.67;100048.13;4860468;29;20075;-80
2021/06/01 05:07:35;;;;;;;6.13;2.80;;;;;;;14.96;44.34;100044.41;4832468;29;20113;-80
2021/06/01 05:10:02;;;;;;;9.52;3.22;;;;;;;15.01;44.39;100042.00;4847871;29;20043;-80
2021/06/01 05:12:29;;;;;;;6.78;2.97;;;;;;;14.84;44.92;100053.91;4854189;29;20623;-80
2021/06/01 05:14:56;;;;;;;3.15;2.85;;;;;;;14.65;44.61;100053.19;4855121;29;20080;-81
2021/06/01 05:17:22;;;;;;;7.68;2.88;;;;;;;14.67;44.84;100045.75;4857013;29;20042;-80
2021/06/01 05:19:48;;;;;;;9.10;2.80;;;;;;;14.87;44.95;100051.69;4818417;29;20053;-84
2021/06/01 05:22:16;;;;;;;5.65;2.20;;;;;;;14.63;43.99;100046.25;4847629;29;20102;-78
2021/06/01 05:24:42;;;;;;;10.05;2.83;;;;;;;14.73;43.83;100055.09;4838502;29;20060;-78
2021/06/01 05:27:09;;;;;;;4.38;2.55;;;;;;;14.91;43.70;100052.22;4832686;29;20192;-81
2021/06/01 05:29:38;;;;;;;5.93;3.08;;;;;;;14.77;44.34;100050.16;4835529;29;20054;-77
2021/06/01 05:32:37;;;;;;;6.80;2.92;;;;;;;14.67;44.48;100051.19;4834075;29;20518;-80
2021/06/01 05:35:04;;;;;;;5.13;3.20;;;;;;;14.92;44.31;100048.50;4833460;29;20087;-81
2021/06/01 05:37:35;;;;;;;9.52;3.30;;;;;;;15.03;44.01;100050.88;4829880;29;20413;-81
2021/06/01 05:40:03;;;;;;;8.70;3.15;;;;;;;15.22;44.28;100054.28;4836227;29;20042;-79
2021/06/01 05:42:29;;;;;;;5.55;3.10;;;;;;;15.02;44.35;100059.19;4830041;29;20051;-82
2021/06/01 05:44:54;;;;;;;10.07;3.55;;;;;;;15.27;43.89;100051.88;4835410;29;20062;-79
2021/06/01 05:47:20;;;;;;;5.45;2.90;;;;;;;15.31;43.87;100058.66;4820959;29;20085;-80
2021/06/01 05:49:47;;;;;;;5.60;3.10;;;;;;;15.47;43.82;100039.59;4814663;29;20122;-81
2021/06/01 05:52:12;;;;;;;9.93;3.70;;;;;;;15.38;43.92;100054.25;4826096;29;20050;-80
2021/06/01 05:54:38;;;;;;;5.88;3.60;;;;;;;15.51;43.46;100051.84;4828231;29;20046;-79
2021/06/01 05:57:06;;;;;;;9.90;3.67;;;;;;;15.45;43.60;100052.53;4834441;29;20575;-79
2021/06/01 05:59:33;;;;;;;7.20;3.25;;;;;;;15.76;42.46;100062.69;4834368;29;20038;-80
2021/06/01 06:01:59;;;;;;;8.15;4.25;;;;;;;15.93;42.17;100067.09;4837519;29;20057;-79
2021/06/01 06:04:25;;;;;;;9.80;3.65;;;;;;;16.19;42.62;100068.69;4827679;29;20049;-80
2021/06/01 06:06:54;;;;;;;4.03;3.22;;;;;;;16.20;42.42;100067.66;4834129;29;20097;-83
2021/06/01 06:09:20;;;;;;;8.02;3.53;;;;;;;16.44;41.97;100069.41;4803180;29;20034;-77
2021/06/01 06:11:46;;;;;;;11.15;3.60;;;;;;;16.34;41.89;100069.63;4840929;29;20046;-80
2021/06/01 06:14:12;;;;;;;10.75;3.60;;;;;;;16.54;41.76;100072.78;4834063;29;20046;-78
2021/06/01 06:16:46;;;;;;;6.20;3.33;;;;;;;16.72;41.21;100064.31;4828433;29;20053;-80
2021/06/01 06:19:12;;;;;;;18.23;4.90;;;;;;;17.13;41.55;100061.31;4837676;29;20053;-81
2021/06/01 06:21:38;;;;;;;3.83;3.50;;;;;;;17.28;40.19;100062.19;4837245;29;20045;-82
2021/06/01 06:24:04;;;;;;;12.55;4.22;;;;;;;17.54;41.26;100070.81;4842551;29;20084;-79
2021/06/01 06:26:30;;;;;;;6.60;3.80;;;;;;;17.20;41.20;100059.53;4834792;29;20153;-79
2021/06/01 06:28:56;;;;;;;7.95;3.97;;;;;;;17.70;40.47;100064.34;4829543;29;20153;-80
2021/06/01 06:31:22;;;;;;;9.73;4.30;;;;;;;18.11;39.70;100054.84;4828758;29;20050;-80
2021/06/01 06:33:48;;;;;;;9.80;3.70;;;;;;;18.40;39.30;100060.28;4833982;29;20057;-80
2021/06/01 06:36:14;;;;;;;8.52;4.28;;;;;;;18.31;39.03;100062.25;4833860;29;20048;-81
2021/06/01 06:38:40;;;;;;;6.93;3.88;;;;;;;18.50;39.29;100060.81;4851480;29;20034;-81
2021/06/01 06:43:36;;;;;;;7.65;3.90;;;;;;;18.49;38.91;100061.00;4855074;29;20145;-82
2021/06/01 06:46:06;;;;;;;9.93;4.72;;;;;;;18.95;38.55;100067.03;4811729;29;20077;-82
2021/06/01 06:48:33;;;;;;;10.15;4.15;;;;;;;18.83;38.62;100063.13;4853497;29;20053;-80
2021/06/01 06:51:01;;;;;;;9.50;4.25;;;;;;;18.38;38.52;100062.34;4852160;29;20060;-81
2021/06/01 06:53:30;;;;;;;5.55;3.63;;;;;;;18.46;38.35;100062.22;4836241;29;20045;-84
2021/06/01 06:55:56;;;;;;;4.18;3.35;;;;;;;18.69;38.12;100058.50;4845754;29;20102;-81
2021/06/01 06:58:23;;;;;;;6.13;3.65;;;;;;;18.49;38.15;100059.09;4853777;29;20052;-83
2021/06/01 07:00:49;;;;;;;5.85;3.92;;;;;;;18.61;38.10;100055.88;4833344;29;20066;-81
2021/06/01 07:03:15;;;;;;;9.98;4.35;;;;;;;19.24;37.58;100056.97;4853986;29;20054;-80
2021/06/01 07:05:41;;;;;;;7.05;3.47;;;;;;;19.51;37.38;100056.13;4827718;29;20050;-82
2021/06/01 07:08:07;;;;;;;5.50;4.40;;;;;;;19.09;37.62;100067.16;4829395;29;20931;-81
2021/06/01 07:10:33;;;;;;;10.90;4.25;;;;;;;18.82;37.77;100069.63;4850877;29;20049;-81
2021/06/01 07:13:01;;;;;;;6.15;4.32;;;;;;;18.87;37.94;100067.16;4853136;29;20034;-80
2021/06/01 07:15:27;;;;;;;4.18;3.47;;;;;;;19.30;36.70;100056.16;4823327;29;20046;-79
2021/06/01 07:18:00;;;;;;;6.30;3.72;;;;;;;19.62;36.89;100067.59;4845025;29;20050;-81
2021/06/01 07:20:30;;;;;;;7.97;3.65;;;;;;;19.19;36.83;100059.44;4829803;29;20068;-79
2021/06/01 07:22:57;;;;;;;11.38;3.63;;;;;;;18.71;37.82;100056.44;4839090;29;20053;-76
2021/06/01 07:25:23;;;;;;;6.28;3.20;;;;;;;18.82;37.14;100058.66;4844834;29;20105;-77
2021/06/01 07:27:48;;;;;;;13.93;3.90;;;;;;;18.80;37.00;100055.28;4851009;29;20049;-76
2021/06/01 07:30:15;;;;;;;10.38;3.38;;;;;;;19.61;36.62;100057.69;4834350;29;20555;-78
2021/06/01 07:32:43;;;;;;;9.73;3.35;;;;;;;20.21;35.91;100064.38;4844878;29;20049;-77
2021/06/01 07:35:09;;;;;;;4.25;3.28;;;;;;;20.10;35.94;100067.72;4836144;29;20097;-78
2021/06/01 07:37:35;;;;;;;5.10;3.13;;;;;;;21.17;33.41;100048.66;4844713;29;20049;-77
2021/06/01 07:40:01;;;;;;;8.15;3.42;;;;;;;21.30;33.37;100047.78;4853085;29;20049;-77
2021/06/01 07:42:27;;;;;;;8.68;3.20;;;;;;;21.70;33.22;100047.78;4831698;29;20081;-77
2021/06/01 07:44:53;;;;;;;6.07;3.00;;;;;;;21.71;33.46;100054.97;4838300;29;20138;-77
2021/06/01 07:47:18;;;;;;;4.90;3.90;;;;;;;21.86;33.27;100044.56;4840123;29;20058;-74
2021/06/01 07:49:44;;;;;;;4.82;3.15;;;;;;;22.10;33.17;100048.53;4837837;29;20405;-75
2021/06/01 07:52:10;;;;;;;17.15;4.63;;;;;;;22.63;32.31;100050.25;4851720;29;20062;-75
2021/06/01 07:54:36;;;;;;;5.80;3.00;;;;;;;22.76;32.16;100058.44;4847604;29;20097;-77
2021/06/01 07:57:02;;;;;;;5.18;2.95;;;;;;;22.59;32.21;100057.25;4849030;29;20433;-77
2021/06/01 07:59:27;;;;;;;3.50;2.70;;;;;;;21.97;32.75;100054.06;4832245;29;20045;-77
2021/06/01 08:01:53;;;;;;;3.78;2.80;;;;;;;22.23;32.27;100047.69;4849879;29;20496;-76
2021/06/01 08:04:19;;;;;;;4.70;3.00;;;;;;;23.13;30.98;100061.44;4836040;29;20130;-77
2021/06/01 08:06:45;;;;;;;6.20;3.28;;;;;;;23.23;30.76;100042.47;4855397;29;20101;-75
2021/06/01 08:09:11;;;;;;;5.43;3.53;;;;;;;23.52;30.35;100051.16;4847114;29;20046;-73
2021/06/01 08:11:37;;;;;;;17.35;4.60;;;;;;;23.86;30.13;100047.00;4825499;29;20076;-77
2021/06/01 08:14:07;;;;;;;7.68;3.63;;;;;;;23.62;30.90;100051.47;4850142;29;20049;-76
2021/06/01 08:16:33;;;;;;;11.50;4.25;;;;;;;23.49;30.50;100051.59;4849280;29;20038;-75
2021/06/01 08:19:18;;;;;;;2.88;2.67;;;;;;;24.68;29.55;100050.31;4843778;29;20050;-78
2021/06/01 08:22:01;;;;;;;3.83;2.72;;;;;;;25.61;28.21;100054.41;4848999;29;20483;-76
2021/06/01 08:24:27;;;;;;;5.15;3.40;;;;;;;25.15;28.68;100049.63;4846822;29;20507;-77
2021/06/01 08:26:53;;;;;;;6.25;3.03;;;;;;;25.05;29.09;100055.72;4852623;29;20059;-77
2021/06/01 08:29:19;;;;;;;4.60;3.35;;;;;;;24.80;28.60;100055.03;4852380;29;20049;-76
2021/06/01 08:31:46;;;;;;;7.03;3.80;;;;;;;25.26;28.18;100062.66;4797989;29;20535;-76
2021/06/01 08:34:12;;;;;;;5.75;5.20;;;;;;;26.27;27.41;100057.88;4830588;29;20490;-75
2021/06/01 08:36:38;;;;;;;8.52;4.10;;;;;;;26.72;26.89;100059.09;4851033;29;20049;-75
2021/06/01 08:39:05;;;;;;;8.60;7.28;;;;;;;26.61;27.59;100058.03;4846521;29;20542;-78
2021/06/01 08:41:32;;;;;;;5.93;3.80;;;;;;;26.73;27.79;100050.53;4843168;29;20140;-78
2021/06/01 08:44:02;;;;;;;4.75;3.90;;;;;;;27.75;26.24;100052.34;4846681;29;20080;-78
2021/06/01 08:46:29;;;;;;;3.88;3.47;;;;;;;27.61;26.02;100049.06;4851398;29;20034;-77
2021/06/01 08:48:55;;;;;;;5.53;3.72;;;;;;;28.05;25.75;100054.75;4848211;29;20038;-78
2021/06/01 08:51:22;;;;;;;9.02;4.13;;;;;;;27.49;25.25;100059.38;4849023;29;20090;-76
2021/06/01 08:53:52;;;;;;;8.75;3.72;;;;;;;27.57;24.99;100050.66;4853322;29;20052;-78
2021/06/01 08:56:18;;;;;;;20.17;4.55;;;;;;;27.74;25.21;100060.91;4841359;29;20099;-75
2021/06/01 08:58:48;;;;;;;4.60;3.92;;;;;;;28.31;24.10;100046.75;4843470;29;20054;-79
2021/06/01 09:01:14;;;;;;;4.53;3.58;;;;;;;28.12;25.39;100052.63;4842952;29;20046;-77
2021/06/01 09:03:59;;;;;;;6.10;3.38;;;;;;;27.99;24.76;100055.75;4850098;29;20530;-74
2021/06/01 09:22:46;;;;;;;3.92;3.53;;;;;;;28.69;23.75;100050.56;4829175;29;20525;-78
2021/06/01 09:25:22;;;;;;;3.78;2.80;;;;;;;26.14;26.76;100042.38;4841086;29;20257;-78
2021/06/01 09:27:53;;;;;;;2.95;2.17;;;;;;;23.95;28.90;100050.31;4833041;29;20041;-78
2021/06/01 09:30:55;;;;;;;4.53;4.22;;;;;;;26.27;26.87;100051.47;4847428;29;20050;-76
2021/06/01 09:33:20;;;;;;;4.13;3.78;;;;;;;27.54;25.59;100048.38;4849759;29;20054;-78
2021/06/01 09:35:48;;;;;;;4.55;4.05;;;;;;;28.12;25.27;100046.22;4850406;29;20265;-77
2021/06/01 09:38:16;;;;;;;5.65;4.30;;;;;;;28.54;24.90;100060.41;4852186;29;20054;-79
2021/06/01 09:41:03;;;;;;;3.78;2.40;;;;;;;27.81;25.05;100056.03;4828887;29;20457;-77
2021/06/01 09:43:29;;;;;;;8.23;2.90;;;;;;;27.58;25.78;100060.66;4849272;29;20049;-77
2021/06/01 09:45:55;;;;;;;6.47;2.50;;;;;;;26.02;27.01;100055.38;4817220;29;20053;-76
2021/06/01 09:48:23;;;;;;;8.32;4.80;;;;;;;26.02;27.84;100060.91;4831044;29;20411;-77
2021/06/01 09:50:55;;;;;;;4.57;2.30;;;;;;;25.06;28.95;100056.56;4849418;29;20511;-79
2021/06/01 09:53:27;;;;;;;4.63;3.90;;;;;;;25.97;27.16;100058.03;4850465;29;20431;-77
2021/06/01 09:55:55;;;;;;;8.38;3.53;;;;;;;27.15;25.57;100058.53;4845524;29;20493;-78
2021/06/01 09:58:32;;;;;;;5.47;3.47;;;;;;;27.17;25.58;100051.66;4832904;29;20056;-78
2021/06/01 10:01:00;;;;;;;6.15;3.65;;;;;;;28.24;25.21;100048.88;4851177;29;20045;-77
2021/06/01 10:03:35;;;;;;;3.85;3.30;;;;;;;28.43;24.50;100041.91;4855138;29;20053;-77
2021/06/01 10:06:01;;;;;;;9.25;4.03;;;;;;;28.72;24.96;100044.47;4847038;29;20132;-80
2021/06/01 10:08:29;;;;;;;2.88;2.00;;;;;;;26.54;26.07;100035.97;4842002;29;20058;-79
2021/06/01 10:11:04;;;;;;;7.88;2.92;;;;;;;25.92;26.65;100039.34;4842489;29;20061;-78
2021/06/01 10:13:33;;;;;;;4.40;2.55;;;;;;;26.06;26.98;100044.66;4844768;29;20050;-78
2021/06/01 10:16:01;;;;;;;5.30;2.45;;;;;;;25.26;27.43;100046.88;4833216;29;20076;-77
2021/06/01 10:18:30;;;;;;;3.60;3.30;;;;;;;24.77;28.31;100040.59;4850626;29;20472;-79
2021/06/01 10:21:01;;;;;;;7.07;2.90;;;;;;;25.15;28.46;100033.03;4848053;29;20062;-78
2021/06/01 10:23:30;;;;;;;3.03;2.40;;;;;;;23.95;29.43;100036.50;4838130;29;20037;-77
2021/06/01 10:25:57;;;;;;;4.10;2.35;;;;;;;23.16;30.68;100036.16;4851962;29;20082;-76
2021/06/01 10:28:26;;;;;;;4.88;2.90;;;;;;;23.39;29.71;100034.69;4851405;29;20070;-76
2021/06/01 10:30:55;;;;;;;7.50;4.18;;;;;;;25.38;28.04;100037.78;4849422;29;20035;-78
2021/06/01 10:33:21;;;;;;;11.40;2.60;;;;;;;25.76;28.54;100026.22;4842306;29;20041;-75
2021/06/01 10:36:02;;;;;;;3.40;2.28;;;;;;;24.47;28.97;100025.94;4846794;29;20045;-77
2021/06/01 10:44:35;;;;;;;7.85;3.63;;;;;;;26.53;26.76;100028.75;4830312;29;20600;-77
2021/06/01 10:52:26;;;;;;;4.57;3.60;;;;;;;27.15;25.51;100026.06;4854254;29;20054;-77
2021/06/01 10:54:57;;;;;;;3.70;3.38;;;;;;;27.93;25.08;100030.91;4851715;29;20432;-77
2021/06/01 10:57:24;;;;;;;3.78;3.47;;;;;;;28.38;24.39;100021.56;4837067;29;20107;-78
2021/06/01 10:59:53;;;;;;;6.65;3.10;;;;;;;27.17;26.27;100018.34;4843870;29;20049;-79
2021/06/01 11:02:20;;;;;;;4.38;3.38;;;;;;;27.73;25.74;100020.34;4852736;29;20152;-81
2021/06/01 11:05:06;;;;;;;6.65;3.45;;;;;;;28.51;24.53;100016.41;4846789;29;20041;-78
2021/06/01 11:07:51;;;;;;;10.60;3.40;;;;;;;28.49;23.31;100018.63;4845315;29;20480;-79
2021/06/01 11:10:39;;;;;;;5.80;2.92;;;;;;;28.48;23.13;100011.38;4844733;29;20149;-77
2021/06/01 11:13:26;;;;;;;5.22;2.67;;;;;;;27.71;24.52;100005.84;4836627;29;20057;-79
2021/06/01 11:15:57;;;;;;;2.10;1.60;;;;;;;25.13;26.03;99997.31;4822699;29;20516;-79
2021/06/01 11:18:38;;;;;;;5.15;2.10;;;;;;;23.97;28.15;100003.97;4844679;29;20033;-77
2021/06/01 11:21:35;;;;;;;7.95;2.30;;;;;;;22.71;29.99;100000.41;4849555;29;20057;-77
2021/06/01 11:35:44;;;;;;;6.75;3.72;;;;;;;25.61;25.85;99998.19;4837134;29;20037;-77
2021/06/01 11:38:35;;;;;;;4.30;3.33;;;;;;;26.67;25.87;100002.41;4846746;29;20049;-77
2021/06/01 11:43:44;;;;;;;4.18;3.17;;;;;;;26.48;25.38;100000.94;4834237;29;20519;-77
2021/06/01 11:51:29;;;;;;;6.82;2.40;;;;;;;25.59;26.56;100001.16;4848498;29;20114;-78
2021/06/01 11:54:03;;;;;;;3.75;1.70;;;;;;;24.70;26.86;100003.91;4846902;29;20415;-79
2021/06/01 11:56:37;;;;;;;2.75;1.45;;;;;;;23.64;28.91;99994.13;4820100;29;20042;-73
2021/06/01 12:02:02;;;;;;;6.13;3.03;;;;;;;25.65;25.75;100000.22;4833058;29;20141;-78
2021/06/01 12:18:37;;;;;;;5.82;2.10;;;;;;;23.51;27.50;99983.19;4850633;29;20144;-79
2021/06/01 12:21:08;;;;;;;4.35;1.80;;;;;;;23.25;28.44;99990.66;4847899;29;20056;-76
2021/06/01 12:24:05;;;;;;;9.43;2.20;;;;;;;22.41;28.85;99988.25;4844553;29;20127;-76
2021/06/01 12:26:47;;;;;;;5.53;1.90;;;;;;;21.87;29.45;99982.97;4835514;29;20102;-78
2021/06/01 12:32:01;;;;;;;5.40;2.03;;;;;;;21.85;31.31;99978.75;4846496;29;20065;-75
2021/06/01 12:35:02;;;;;;;6.25;1.77;;;;;;;21.94;29.93;99984.84;4851031;29;20046;-76
2021/06/01 12:45:44;;;;;;;3.20;1.63;;;;;;;22.13;30.28;99986.69;4840696;29;20042;-78
2021/06/01 13:19:33;;;;;;;6.05;1.95;;;;;;;20.90;30.48;99973.53;4781410;29;20114;-78
2021/06/01 13:22:13;;;;;;;7.85;2.45;;;;;;;20.85;30.95;99978.84;4819439;29;20231;-76
2021/06/01 13:46:47;;;;;;;6.32;2.20;;;;;;;19.56;32.78;99984.22;4840783;29;20057;-77
2021/06/01 13:49:18;;;;;;;13.55;2.35;;;;;;;19.37;31.70;99979.44;4851562;29;20053;-77
2021/06/01 13:57:14;;;;;;;2.85;1.45;;;;;;;19.16;32.40;99983.94;4850838;29;20487;-77